createdAt,value
2023-03-29T00:04:41.234Z,14.17
2023-03-29T00:09:44.960Z,14.39
2023-03-29T00:14:49.774Z,14.74
2023-03-29T00:19:53.164Z,14.65
2023-03-29T00:24:56.577Z,14.72
2023-03-29T00:30:02.543Z,14.49
2023-03-29T00:35:06.805Z,14.41
2023-03-29T00:40:12.645Z,14.44
2023-03-29T00:45:22.329Z,14.41
2023-03-29T00:50:30.862Z,14.62
2023-03-29T00:55:37.157Z,13.94
2023-03-29T01:00:47.359Z,14.45
2023-03-29T01:05:52.876Z,13.91
2023-03-29T01:10:58.754Z,14.38
2023-03-29T01:16:04.746Z,14.04
2023-03-29T01:21:16.565Z,14.14
2023-03-29T01:26:24.920Z,14.32
2023-03-29T01:31:31.720Z,13.81
2023-03-29T01:36:40.605Z,13.13
2023-03-29T01:41:49.344Z,12.86
2023-03-29T01:46:57.670Z,13.58
2023-03-29T01:52:03.484Z,13.44
2023-03-29T01:57:08.003Z,13.40
2023-03-29T02:02:15.526Z,13.22
2023-03-29T02:07:22.365Z,13.54
2023-03-29T02:12:26.007Z,13.42
2023-03-29T02:17:32.097Z,13.04
2023-03-29T02:22:40.602Z,13.35
2023-03-29T02:27:44.358Z,13.81
2023-03-29T02:32:52.965Z,13.82
2023-03-29T02:37:56.992Z,13.64
2023-03-29T02:43:02.814Z,13.35
2023-03-29T02:48:11.650Z,13.38
2023-03-29T02:53:17.948Z,13.68
2023-03-29T02:58:28.766Z,13.51
2023-03-29T03:03:34.131Z,13.85
2023-03-29T03:08:38.674Z,13.52
2023-03-29T03:13:42.104Z,13.06
2023-03-29T03:18:48.628Z,13.38
2023-03-29T03:23:52.436Z,13.46
2023-03-29T03:28:56.189Z,13.23
2023-03-29T03:34:20.255Z,13.37
2023-03-29T03:39:30.533Z,13.55
2023-03-29T03:44:34.347Z,12.83
2023-03-29T03:49:57.612Z,13.54
2023-03-29T03:55:03.359Z,13.50
2023-03-29T04:00:27.322Z,13.45
2023-03-29T04:05:56.170Z,13.59
2023-03-29T04:11:03.434Z,13.49
2023-03-29T04:16:13.296Z,13.39
2023-03-29T04:21:21.097Z,13.22
2023-03-29T04:26:24.978Z,12.93
2023-03-29T04:31:35.081Z,12.98
2023-03-29T04:37:21.945Z,12.56
2023-03-29T04:42:28.487Z,13.11
2023-03-29T04:47:32.681Z,13.15
2023-03-29T04:52:50.558Z,13.27
2023-03-29T04:57:55.454Z,13.21
2023-03-29T05:03:07.480Z,13.28
2023-03-29T05:08:16.844Z,13.22
2023-03-29T05:13:40.383Z,13.27
2023-03-29T05:18:43.923Z,12.54
2023-03-29T05:23:49.484Z,13.40
2023-03-29T05:28:53.035Z,13.03
2023-03-29T05:33:56.706Z,12.74
2023-03-29T05:39:01.867Z,13.21
2023-03-29T05:44:06.236Z,13.36
2023-03-29T05:49:09.899Z,13.19
2023-03-29T05:54:29.015Z,13.73
2023-03-29T05:59:33.733Z,13.45
2023-03-29T06:04:37.490Z,13.83
2023-03-29T06:09:58.014Z,13.88
2023-03-29T06:15:04.862Z,13.36
2023-03-29T06:20:21.445Z,13.97
2023-03-29T06:25:31.797Z,14.05
2023-03-29T06:30:35.420Z,13.26
2023-03-29T06:35:42.696Z,14.15
2023-03-29T06:40:51.444Z,14.17
2023-03-29T06:45:57.187Z,13.87
2023-03-29T06:51:13.158Z,14.19
2023-03-29T06:56:18.259Z,14.65
2023-03-29T07:01:24.316Z,15.23
2023-03-29T07:06:34.777Z,15.19
2023-03-29T07:11:40.115Z,15.50
2023-03-29T07:17:04.090Z,13.95
2023-03-29T07:22:14.037Z,15.24
2023-03-29T07:27:26.414Z,15.34
2023-03-29T07:32:31.678Z,15.66
2023-03-29T07:37:49.029Z,15.41
2023-03-29T07:42:55.336Z,15.45
2023-03-29T07:48:00.521Z,14.85
2023-03-29T07:53:11.721Z,15.20
2023-03-29T07:58:17.376Z,15.34
2023-03-29T08:03:20.967Z,15.58
2023-03-29T08:08:24.895Z,15.33
2023-03-29T08:13:34.436Z,15.63
2023-03-29T08:18:56.490Z,15.68
2023-03-29T08:24:04.855Z,16.02
2023-03-29T08:29:20.655Z,16.23
2023-03-29T08:34:24.716Z,16.54
2023-03-29T08:39:39.859Z,16.44
2023-03-29T08:45:08.743Z,17.05
2023-03-29T08:50:13.783Z,16.73
2023-03-29T08:55:28.343Z,16.55
2023-03-29T09:00:54.296Z,16.58
2023-03-29T09:06:00.999Z,17.23
2023-03-29T09:11:32.017Z,17.35
2023-03-29T09:16:39.710Z,17.43
2023-03-29T09:21:47.554Z,16.86
2023-03-29T09:26:55.679Z,16.45
2023-03-29T09:32:08.568Z,16.84
2023-03-29T09:37:13.315Z,15.96
2023-03-29T09:42:22.093Z,16.60
2023-03-29T09:47:29.532Z,16.66
2023-03-29T09:52:35.363Z,16.90
2023-03-29T09:57:52.947Z,16.97
2023-03-29T10:03:00.346Z,17.06
2023-03-29T10:08:19.839Z,17.06
2023-03-29T10:13:29.455Z,17.55
2023-03-29T10:18:35.024Z,18.04
2023-03-29T10:23:39.384Z,18.57
2023-03-29T10:28:42.929Z,18.39
2023-03-29T10:33:54.188Z,17.44
2023-03-29T10:38:59.188Z,18.13
2023-03-29T10:44:03.286Z,18.08
2023-03-29T10:49:19.190Z,18.55
2023-03-29T10:54:24.612Z,18.20
2023-03-29T10:59:31.916Z,18.32
2023-03-29T11:04:42.797Z,18.90
2023-03-29T11:09:51.232Z,18.81
2023-03-29T11:15:04.605Z,18.78
2023-03-29T11:20:21.522Z,18.27
2023-03-29T11:25:33.344Z,19.23
2023-03-29T11:30:40.795Z,19.64
2023-03-29T11:35:50.586Z,18.90
2023-03-29T11:41:00.241Z,19.52
2023-03-29T11:46:11.045Z,19.33
2023-03-29T11:51:19.553Z,19.38
2023-03-29T11:56:29.303Z,20.75
2023-03-29T12:01:35.777Z,21.89
2023-03-29T12:06:44.172Z,20.95
2023-03-29T12:11:51.600Z,20.77
2023-03-29T12:16:58.573Z,20.67
2023-03-29T12:22:03.529Z,21.53
2023-03-29T12:27:25.972Z,20.76
2023-03-29T12:32:43.444Z,20.74
2023-03-29T12:38:21.467Z,21.81
2023-03-29T12:43:43.553Z,20.30
2023-03-29T12:49:11.978Z,20.39
2023-03-29T12:54:18.224Z,20.08
2023-03-29T12:59:28.071Z,18.94
2023-03-29T13:04:38.957Z,19.21
2023-03-29T13:09:51.448Z,18.73
2023-03-29T13:14:56.638Z,19.46
2023-03-29T13:20:12.548Z,19.52
2023-03-29T13:25:27.184Z,19.70
2023-03-29T13:30:44.179Z,20.09
2023-03-29T13:35:52.807Z,18.84
2023-03-29T13:41:03.427Z,19.41
2023-03-29T13:46:19.410Z,19.78
2023-03-29T13:51:29.525Z,20.11
2023-03-29T13:56:40.985Z,20.71
2023-03-29T14:01:50.519Z,21.39
2023-03-29T14:06:56.243Z,20.18
2023-03-29T14:12:02.326Z,19.77
2023-03-29T14:17:06.476Z,19.51
2023-03-29T14:22:14.322Z,20.28
2023-03-29T14:27:20.524Z,19.80
2023-03-29T14:32:29.752Z,19.36
2023-03-29T14:37:33.676Z,20.03
2023-03-29T14:42:38.802Z,18.94
2023-03-29T14:47:42.717Z,19.42
2023-03-29T14:52:47.587Z,19.36
2023-03-29T14:57:55.370Z,19.38
2023-03-29T15:03:00.481Z,19.34
2023-03-29T15:08:09.826Z,19.93
2023-03-29T15:13:18.444Z,19.52
2023-03-29T15:18:27.409Z,19.99
2023-03-29T15:23:36.722Z,18.72
2023-03-29T15:28:48.871Z,19.81
2023-03-29T15:34:02.979Z,19.22
2023-03-29T15:39:06.439Z,20.02
2023-03-29T15:44:11.545Z,19.72
2023-03-29T15:49:15.796Z,19.83
2023-03-29T15:54:19.319Z,19.72
2023-03-29T15:59:24.225Z,20.27
2023-03-29T16:04:27.985Z,20.23
2023-03-29T16:09:31.439Z,19.61
2023-03-29T16:14:36.321Z,19.76
2023-03-29T16:19:39.869Z,19.49
2023-03-29T16:24:43.849Z,19.33
2023-03-29T16:29:48.802Z,19.25
2023-03-29T16:34:52.336Z,19.34
2023-03-29T16:39:56.010Z,19.05
2023-03-29T16:45:02.207Z,19.58
2023-03-29T16:50:07.156Z,19.60
2023-03-29T16:55:12.716Z,19.87
2023-03-29T17:00:20.200Z,19.75
2023-03-29T17:05:23.704Z,20.22
2023-03-29T17:10:27.146Z,20.15
2023-03-29T17:15:31.974Z,19.93
2023-03-29T17:20:35.936Z,20.13
2023-03-29T17:25:39.452Z,20.17
2023-03-29T17:30:46.051Z,20.22
2023-03-29T17:35:49.700Z,20.20
2023-03-29T17:40:53.885Z,20.26
2023-03-29T17:45:58.847Z,20.17
2023-03-29T17:51:02.358Z,20.34
2023-03-29T17:56:07.036Z,20.32
2023-03-29T18:01:12.506Z,20.29
2023-03-29T18:06:19.389Z,20.38
2023-03-29T18:11:24.635Z,20.40
2023-03-29T18:16:29.931Z,20.26
2023-03-29T18:21:33.490Z,20.28
2023-03-29T18:26:37.061Z,20.27
2023-03-29T18:31:42.950Z,20.28
2023-03-29T18:36:46.725Z,20.26
2023-03-29T18:41:50.192Z,20.15
2023-03-29T18:46:55.402Z,20.15
2023-03-29T18:51:58.907Z,20.04
2023-03-29T18:57:02.660Z,20.03
2023-03-29T19:02:08.249Z,20.04
2023-03-29T19:07:11.827Z,19.98
2023-03-29T19:12:15.457Z,19.94
2023-03-29T19:17:20.540Z,19.92
2023-03-29T19:22:24.057Z,19.85
2023-03-29T19:27:27.703Z,19.88
2023-03-29T19:32:33.629Z,19.72
2023-03-29T19:37:37.281Z,19.71
2023-03-29T19:42:40.905Z,19.63
2023-03-29T19:47:47.560Z,19.62
2023-03-29T19:52:54.348Z,19.71
2023-03-29T19:57:57.850Z,19.67
2023-03-29T20:03:03.101Z,19.65
2023-03-29T20:08:07.015Z,19.62
2023-03-29T20:13:10.582Z,19.57
2023-03-29T20:18:15.711Z,19.53
2023-03-29T20:23:19.322Z,19.47
2023-03-29T20:28:23.617Z,19.42
2023-03-29T20:33:28.561Z,19.32
2023-03-29T20:38:32.051Z,19.33
2023-03-29T20:43:38.831Z,19.40
2023-03-29T20:48:53.244Z,19.46
2023-03-29T20:54:02.383Z,19.64
2023-03-29T20:59:06.784Z,19.54
2023-03-29T21:04:11.915Z,19.55
2023-03-29T21:09:15.366Z,19.66
2023-03-29T21:14:19.613Z,19.59
2023-03-29T21:19:24.601Z,19.63
2023-03-29T21:24:28.088Z,19.45
2023-03-29T21:29:31.647Z,19.21
2023-03-29T21:34:36.632Z,19.20
2023-03-29T21:39:40.576Z,19.19
2023-03-29T21:44:44.362Z,19.15
2023-03-29T21:49:49.265Z,19.34
2023-03-29T21:54:52.832Z,19.34
2023-03-29T21:59:56.715Z,19.48
2023-03-29T22:05:01.680Z,19.44
2023-03-29T22:10:05.579Z,19.49
2023-03-29T22:15:11.646Z,19.51
2023-03-29T22:20:18.455Z,19.35
2023-03-29T22:25:22.748Z,19.37
2023-03-29T22:30:26.211Z,19.40
2023-03-29T22:35:31.241Z,19.32
2023-03-29T22:40:34.704Z,19.29
2023-03-29T22:45:38.251Z,19.27
2023-03-29T22:50:43.330Z,19.23
2023-03-29T22:55:46.910Z,19.00
2023-03-29T23:00:51.022Z,19.22
2023-03-29T23:05:57.247Z,19.15
2023-03-29T23:11:00.951Z,19.08
2023-03-29T23:16:05.003Z,18.94
2023-03-29T23:21:10.431Z,18.91
2023-03-29T23:26:13.998Z,18.88
2023-03-29T23:31:18.420Z,18.93
2023-03-29T23:36:25.517Z,18.94
2023-03-29T23:41:30.515Z,19.00
2023-03-29T23:46:34.192Z,18.92
2023-03-29T23:51:39.294Z,18.97
2023-03-29T23:56:42.819Z,18.96
